Time;durP1;ratioP1;P1;durP2;ratioP2;P2;SDS_P1;SDS_P2;PMS_P1;PMS_P2;Temp;Humidity;BMP_temperature;BMP_pressure;BME280_temperature;BME280_humidity;BME280_pressure;Samples;Min_cycle;Max_cycle;Signal;HPM_P1;HPM_P2
2022/05/14 00:00:28;;;;;;;5.05;2.10;;;;;;;;;;5055126;28;20473;-66
2022/05/14 00:02:55;;;;;;;3.53;2.08;;;;;;;;;;5054592;28;20071;-66
2022/05/14 00:05:22;;;;;;;5.78;2.45;;;;;;;;;;5057045;28;20048;-66
2022/05/14 00:07:50;;;;;;;6.65;1.85;;;;;;;;;;5038470;28;20021;-66
2022/05/14 00:10:16;;;;;;;4.53;2.05;;;;;;;;;;5054691;28;20021;-66
2022/05/14 00:15:27;;;;;;;9.68;2.47;;;;;;;;;;5055459;28;20039;-66
2022/05/14 00:17:54;;;;;;;5.97;2.28;;;;;;;;;;5054920;28;20036;-66
2022/05/14 00:20:23;;;;;;;4.05;2.17;;;;;;;;;;5055282;28;20397;-66
2022/05/14 00:22:50;;;;;;;10.45;3.97;;;;;;;;;;5054750;28;20028;-66
2022/05/14 00:25:16;;;;;;;5.72;2.13;;;;;;;;;;5052468;28;20053;-66
2022/05/14 00:27:43;;;;;;;5.45;1.88;;;;;;;;;;5054690;28;20021;-66
2022/05/14 00:30:10;;;;;;;6.72;2.55;;;;;;;;;;5049864;28;20020;-66
2022/05/14 00:32:37;;;;;;;7.72;2.22;;;;;;;;;;5060051;28;20029;-66
2022/05/14 00:35:04;;;;;;;3.58;2.25;;;;;;;;;;5072268;28;20105;-66
2022/05/14 00:37:31;;;;;;;4.45;1.80;;;;;;;;;;5056584;28;20024;-66
2022/05/14 00:39:57;;;;;;;4.75;1.88;;;;;;;;;;5054030;28;20032;-66
2022/05/14 00:42:24;;;;;;;4.95;2.28;;;;;;;;;;5054809;28;20485;-66
2022/05/14 00:44:50;;;;;;;5.60;2.58;;;;;;;;;;5053892;28;20485;-66
2022/05/14 00:47:17;;;;;;;4.63;2.00;;;;;;;;;;5053505;28;20552;-66
2022/05/14 00:49:45;;;;;;;11.75;2.47;;;;;;;;;;5052843;28;20086;-66
2022/05/14 00:52:13;;;;;;;6.53;2.15;;;;;;;;;;5053318;28;20017;-66
2022/05/14 00:54:47;;;;;;;7.05;2.10;;;;;;;;;;5054166;28;20508;-66
2022/05/14 00:57:16;;;;;;;2.97;2.17;;;;;;;;;;5053295;28;20121;-66
2022/05/14 00:59:42;;;;;;;3.42;2.05;;;;;;;;;;5051426;28;20040;-66
2022/05/14 01:02:08;;;;;;;12.07;2.22;;;;;;;;;;5040060;28;20025;-66
2022/05/14 01:04:35;;;;;;;5.55;2.45;;;;;;;;;;5053253;28;20017;-66
2022/05/14 01:07:09;;;;;;;4.30;1.60;;;;;;;;;;5048913;28;20025;-66
2022/05/14 01:09:40;;;;;;;6.38;2.08;;;;;;;;;;5052485;28;20548;-66
2022/05/14 01:12:07;;;;;;;3.85;2.10;;;;;;;;;;5052868;28;20024;-66
2022/05/14 01:14:34;;;;;;;3.55;1.88;;;;;;;;;;5052771;28;20029;-66
2022/05/14 01:17:01;;;;;;;6.00;4.25;;;;;;;;;;5052559;28;20071;-66
2022/05/14 01:19:30;;;;;;;3.80;1.83;;;;;;;;;;5046601;28;20112;-66
2022/05/14 01:22:09;;;;;;;4.80;2.33;;;;;;;;;;5052951;28;20072;-66
2022/05/14 01:27:42;;;;;;;6.47;3.00;;;;;;;;;;5052402;28;20113;-66
2022/05/14 01:30:09;;;;;;;4.07;2.28;;;;;;;;;;5053659;28;20480;-66
2022/05/14 01:32:36;;;;;;;4.60;2.40;;;;;;;;;;5054062;28;20396;-66
2022/05/14 01:35:02;;;;;;;3.70;2.00;;;;;;;;;;5053576;28;20033;-66
2022/05/14 01:37:31;;;;;;;5.80;2.67;;;;;;;;;;5056848;28;20074;-66
2022/05/14 01:39:58;;;;;;;7.35;2.83;;;;;;;;;;5040822;28;20032;-66
2022/05/14 01:42:24;;;;;;;6.47;2.35;;;;;;;;;;5053678;28;20036;-66
2022/05/14 01:44:50;;;;;;;4.80;2.05;;;;;;;;;;5053433;28;20024;-66
2022/05/14 01:47:17;;;;;;;5.63;2.15;;;;;;;;;;5055288;28;20036;-66
2022/05/14 01:49:43;;;;;;;8.63;2.55;;;;;;;;;;5055600;28;20029;-66
2022/05/14 01:52:09;;;;;;;6.50;2.50;;;;;;;;;;5047292;28;20071;-65
2022/05/14 01:54:36;;;;;;;6.60;2.70;;;;;;;;;;5039246;28;20028;-66
2022/05/14 01:57:02;;;;;;;5.88;2.10;;;;;;;;;;5043394;28;20056;-66
2022/05/14 01:59:28;;;;;;;4.05;1.83;;;;;;;;;;5079652;28;20505;-66
2022/05/14 02:01:54;;;;;;;5.43;2.17;;;;;;;;;;5068142;28;20029;-66
2022/05/14 02:04:21;;;;;;;3.70;2.20;;;;;;;;;;5051933;28;20020;-66
2022/05/14 02:06:47;;;;;;;5.90;2.72;;;;;;;;;;5052753;28;20489;-66
2022/05/14 02:09:15;;;;;;;4.53;2.22;;;;;;;;;;5051809;28;20036;-66
2022/05/14 02:11:46;;;;;;;8.80;2.47;;;;;;;;;;5051227;28;20071;-66
2022/05/14 02:14:21;;;;;;;4.78;2.10;;;;;;;;;;5052022;28;20029;-66
2022/05/14 02:16:47;;;;;;;6.07;2.30;;;;;;;;;;5052374;28;20044;-66
2022/05/14 02:19:13;;;;;;;9.88;3.13;;;;;;;;;;5051937;28;20029;-66
2022/05/14 02:21:41;;;;;;;4.22;2.00;;;;;;;;;;5051405;28;20029;-66
2022/05/14 02:24:09;;;;;;;4.70;2.05;;;;;;;;;;5050952;28;20029;-66
2022/05/14 02:26:35;;;;;;;4.80;2.30;;;;;;;;;;5051556;28;20025;-66
2022/05/14 02:29:02;;;;;;;6.80;2.38;;;;;;;;;;5050563;28;20025;-66
2022/05/14 02:31:28;;;;;;;7.47;2.90;;;;;;;;;;5052447;28;20078;-66
2022/05/14 02:33:54;;;;;;;7.35;2.17;;;;;;;;;;5052544;28;20501;-66
2022/05/14 02:36:20;;;;;;;4.90;2.30;;;;;;;;;;5042620;28;20116;-66
2022/05/14 02:38:47;;;;;;;3.50;2.30;;;;;;;;;;5050890;28;20116;-66
2022/05/14 02:41:14;;;;;;;4.45;2.83;;;;;;;;;;5052308;28;20044;-66
2022/05/14 02:43:41;;;;;;;6.10;2.05;;;;;;;;;;5051129;28;20025;-66
2022/05/14 02:46:07;;;;;;;3.80;2.22;;;;;;;;;;5052014;28;20120;-66
2022/05/14 02:48:34;;;;;;;6.38;2.05;;;;;;;;;;5052505;28;20477;-66
2022/05/14 02:51:00;;;;;;;6.65;2.40;;;;;;;;;;5052079;28;20459;-66
2022/05/14 02:53:27;;;;;;;5.25;2.13;;;;;;;;;;5050918;28;20028;-66
2022/05/14 02:55:53;;;;;;;5.10;2.60;;;;;;;;;;5050738;28;20064;-66
2022/05/14 03:01:06;;;;;;;5.25;2.78;;;;;;;;;;5050628;28;20029;-66
2022/05/14 03:03:33;;;;;;;5.32;2.47;;;;;;;;;;5051094;28;20393;-66
2022/05/14 03:06:00;;;;;;;5.28;2.55;;;;;;;;;;5049793;28;20405;-66
2022/05/14 03:08:26;;;;;;;5.80;2.70;;;;;;;;;;5052246;28;20017;-66
2022/05/14 03:10:53;;;;;;;7.70;2.63;;;;;;;;;;5052065;28;20409;-66
2022/05/14 03:13:19;;;;;;;4.35;2.40;;;;;;;;;;5049254;28;20048;-65
2022/05/14 03:15:46;;;;;;;5.50;2.55;;;;;;;;;;5052010;28;20120;-65
2022/05/14 03:18:12;;;;;;;9.95;2.88;;;;;;;;;;5044371;28;20021;-65
2022/05/14 03:20:38;;;;;;;7.35;2.40;;;;;;;;;;5062734;28;20029;-66
2022/05/14 03:23:04;;;;;;;4.55;2.22;;;;;;;;;;5051771;28;20017;-66
2022/05/14 03:25:31;;;;;;;5.75;2.45;;;;;;;;;;5051754;28;20033;-66
2022/05/14 03:27:57;;;;;;;5.43;2.45;;;;;;;;;;5050021;28;20025;-66
2022/05/14 03:30:24;;;;;;;7.63;2.58;;;;;;;;;;5051484;28;20377;-66
2022/05/14 03:32:50;;;;;;;6.72;2.10;;;;;;;;;;5050190;28;20180;-66
2022/05/14 03:35:17;;;;;;;8.32;2.55;;;;;;;;;;5075793;28;20033;-66
2022/05/14 03:37:44;;;;;;;5.20;2.42;;;;;;;;;;5050623;28;20068;-66
2022/05/14 03:40:11;;;;;;;5.43;2.55;;;;;;;;;;5049733;28;20029;-66
2022/05/14 03:42:38;;;;;;;5.60;3.63;;;;;;;;;;5046745;28;20021;-66
2022/05/14 03:45:04;;;;;;;7.22;2.88;;;;;;;;;;5051549;28;20037;-66
2022/05/14 03:47:30;;;;;;;3.72;2.00;;;;;;;;;;5049906;28;20018;-66
2022/05/14 03:49:57;;;;;;;4.20;2.70;;;;;;;;;;5050492;28;20052;-66
2022/05/14 03:52:23;;;;;;;8.20;4.05;;;;;;;;;;5040313;28;20040;-66
2022/05/14 03:54:50;;;;;;;6.70;2.80;;;;;;;;;;5050881;28;20040;-66
2022/05/14 03:57:16;;;;;;;5.40;2.50;;;;;;;;;;5052519;28;20528;-66
2022/05/14 03:59:42;;;;;;;6.78;3.28;;;;;;;;;;5049853;28;20079;-66
2022/05/14 04:02:09;;;;;;;5.43;2.90;;;;;;;;;;5043863;28;20490;-66
2022/05/14 04:04:35;;;;;;;5.95;3.13;;;;;;;;;;5049910;28;20500;-66
2022/05/14 04:07:03;;;;;;;5.78;3.20;;;;;;;;;;5039625;28;20107;-66
2022/05/14 04:09:29;;;;;;;3.80;2.53;;;;;;;;;;5051244;28;20489;-66
2022/05/14 04:11:56;;;;;;;3.88;2.65;;;;;;;;;;5050278;28;20071;-66
2022/05/14 04:14:23;;;;;;;6.75;2.95;;;;;;;;;;5049617;28;20032;-66
2022/05/14 04:16:51;;;;;;;4.72;2.58;;;;;;;;;;5049792;28;20111;-66
2022/05/14 04:19:19;;;;;;;7.97;3.00;;;;;;;;;;5050398;28;20025;-66
2022/05/14 04:21:47;;;;;;;7.80;3.42;;;;;;;;;;5050544;28;20025;-66
2022/05/14 04:24:14;;;;;;;6.35;3.17;;;;;;;;;;5049148;28;20034;-66
2022/05/14 04:26:41;;;;;;;6.38;2.90;;;;;;;;;;5039948;28;20074;-66
2022/05/14 04:29:08;;;;;;;5.63;3.47;;;;;;;;;;5056037;28;20033;-66
2022/05/14 04:31:35;;;;;;;6.78;2.92;;;;;;;;;;5053347;28;20047;-66
2022/05/14 04:34:01;;;;;;;6.65;2.83;;;;;;;;;;5053963;28;20050;-66
2022/05/14 04:36:27;;;;;;;7.25;3.30;;;;;;;;;;5053842;28;20567;-66
2022/05/14 04:38:54;;;;;;;6.40;2.78;;;;;;;;;;5053528;28;20039;-66
2022/05/14 04:41:21;;;;;;;5.30;3.40;;;;;;;;;;5054589;28;20439;-66
2022/05/14 04:43:48;;;;;;;7.50;3.20;;;;;;;;;;5052329;28;20040;-66
2022/05/14 04:46:15;;;;;;;5.60;3.30;;;;;;;;;;5050065;28;20102;-66
2022/05/14 04:48:41;;;;;;;5.00;2.60;;;;;;;;;;5051481;28;20374;-66
2022/05/14 04:51:08;;;;;;;6.60;3.03;;;;;;;;;;5052083;28;20436;-66
2022/05/14 04:53:34;;;;;;;4.75;2.65;;;;;;;;;;5052874;28;20037;-66
2022/05/14 04:56:00;;;;;;;7.97;3.80;;;;;;;;;;5051520;28;20041;-66
2022/05/14 04:58:26;;;;;;;7.55;3.92;;;;;;;;;;5054304;28;20417;-66
2022/05/14 05:00:53;;;;;;;5.97;3.47;;;;;;;;;;5052169;28;20056;-66
2022/05/14 05:03:19;;;;;;;9.65;3.50;;;;;;;;;;5052448;28;20029;-66
2022/05/14 05:05:53;;;;;;;13.68;3.22;;;;;;;;;;5051557;28;20024;-66
2022/05/14 05:08:20;;;;;;;6.50;3.65;;;;;;;;;;5051812;28;20521;-66
2022/05/14 05:10:46;;;;;;;5.30;3.28;;;;;;;;;;5061215;28;20029;-66
2022/05/14 05:13:14;;;;;;;11.15;3.33;;;;;;;;;;5057573;28;20166;-66
2022/05/14 05:15:41;;;;;;;9.05;3.28;;;;;;;;;;5053751;28;20052;-66
2022/05/14 05:18:08;;;;;;;5.32;3.20;;;;;;;;;;5053889;28;20401;-66
2022/05/14 05:20:35;;;;;;;6.25;3.15;;;;;;;;;;5054166;28;20037;-66
2022/05/14 05:23:01;;;;;;;7.63;3.45;;;;;;;;;;5069329;28;20116;-67
2022/05/14 05:25:27;;;;;;;13.85;4.28;;;;;;;;;;5052259;28;20028;-67
2022/05/14 05:27:54;;;;;;;6.85;3.55;;;;;;;;;;5053828;28;20029;-67
2022/05/14 05:30:20;;;;;;;6.68;3.75;;;;;;;;;;5053194;28;20032;-67
2022/05/14 05:32:46;;;;;;;5.93;4.32;;;;;;;;;;5054173;28;20128;-67
2022/05/14 05:35:13;;;;;;;8.80;4.30;;;;;;;;;;5048850;28;20068;-68
2022/05/14 05:37:39;;;;;;;7.50;4.00;;;;;;;;;;5053331;28;20083;-68
2022/05/14 05:40:05;;;;;;;7.13;3.95;;;;;;;;;;5055449;28;20020;-68
2022/05/14 05:42:32;;;;;;;6.35;4.15;;;;;;;;;;5052244;28;20025;-68
2022/05/14 05:44:58;;;;;;;10.00;4.25;;;;;;;;;;5042899;28;20025;-68
2022/05/14 05:47:24;;;;;;;9.18;3.92;;;;;;;;;;5048316;28;20088;-67
2022/05/14 05:49:51;;;;;;;8.20;4.40;;;;;;;;;;5053216;28;20477;-65
2022/05/14 05:52:17;;;;;;;9.05;4.75;;;;;;;;;;5048223;28;20071;-68
2022/05/14 05:57:29;;;;;;;10.52;4.35;;;;;;;;;;5052507;28;20049;-68
2022/05/14 05:59:55;;;;;;;9.75;5.07;;;;;;;;;;5050373;28;20057;-68
2022/05/14 06:02:21;;;;;;;11.18;4.50;;;;;;;;;;5052221;28;20025;-68
2022/05/14 06:04:48;;;;;;;9.77;4.72;;;;;;;;;;5049514;28;20024;-68
2022/05/14 06:07:14;;;;;;;6.25;4.05;;;;;;;;;;5046896;28;20013;-68
2022/05/14 06:09:40;;;;;;;12.98;4.85;;;;;;;;;;5051393;28;20430;-68
2022/05/14 06:12:06;;;;;;;14.25;5.35;;;;;;;;;;5058187;28;20025;-68
2022/05/14 06:14:33;;;;;;;10.15;4.45;;;;;;;;;;5051135;28;20013;-68
2022/05/14 06:16:59;;;;;;;10.88;5.10;;;;;;;;;;5050222;28;20029;-68
2022/05/14 06:19:25;;;;;;;18.48;5.25;;;;;;;;;;5052417;28;20059;-68
2022/05/14 06:21:51;;;;;;;10.05;4.55;;;;;;;;;;5040268;28;20077;-68
2022/05/14 06:24:17;;;;;;;10.27;4.78;;;;;;;;;;5051549;28;20021;-68
2022/05/14 06:26:43;;;;;;;6.45;4.15;;;;;;;;;;5036268;28;20022;-68
2022/05/14 06:29:10;;;;;;;9.02;4.53;;;;;;;;;;5049800;28;20385;-68
2022/05/14 06:31:37;;;;;;;8.13;4.43;;;;;;;;;;5039908;28;20056;-68
2022/05/14 06:34:03;;;;;;;10.73;5.40;;;;;;;;;;5046095;28;20024;-68
2022/05/14 06:36:29;;;;;;;9.38;4.68;;;;;;;;;;5051378;28;20490;-68
2022/05/14 06:38:56;;;;;;;10.82;5.40;;;;;;;;;;5050303;28;20060;-68
2022/05/14 06:41:22;;;;;;;12.48;5.40;;;;;;;;;;5050207;28;20013;-68
2022/05/14 06:43:48;;;;;;;9.07;5.25;;;;;;;;;;5044973;28;20416;-68
2022/05/14 06:46:15;;;;;;;11.45;5.13;;;;;;;;;;5051955;28;20497;-68
2022/05/14 06:48:41;;;;;;;14.35;5.55;;;;;;;;;;5051867;28;20370;-67
2022/05/14 06:51:09;;;;;;;15.20;5.18;;;;;;;;;;5055309;28;20033;-68
2022/05/14 06:53:36;;;;;;;13.52;5.20;;;;;;;;;;5045115;28;21554;-68
2022/05/14 06:56:03;;;;;;;10.18;5.03;;;;;;;;;;5062887;28;20523;-68
2022/05/14 06:58:33;;;;;;;13.35;5.50;;;;;;;;;;5045437;28;20040;-67
2022/05/14 07:00:59;;;;;;;10.63;5.47;;;;;;;;;;5044189;28;20107;-67
2022/05/14 07:08:57;;;;;;;15.18;6.53;;;;;;;;;;5050018;28;20040;-68
2022/05/14 07:11:23;;;;;;;11.05;6.20;;;;;;;;;;5044588;28;20009;-68
2022/05/14 07:13:51;;;;;;;12.05;5.95;;;;;;;;;;5046968;28;20047;-68
2022/05/14 07:16:17;;;;;;;12.90;5.72;;;;;;;;;;5049644;28;20021;-68
2022/05/14 07:18:44;;;;;;;12.32;5.90;;;;;;;;;;5050561;28;20552;-68
2022/05/14 07:21:10;;;;;;;17.23;5.65;;;;;;;;;;5050555;28;20027;-67
2022/05/14 07:23:36;;;;;;;18.08;6.45;;;;;;;;;;5053740;28;20384;-68
2022/05/14 07:26:06;;;;;;;15.02;6.95;;;;;;;;;;5049290;28;20481;-68
2022/05/14 07:28:33;;;;;;;9.75;5.68;;;;;;;;;;5048698;28;20020;-68
2022/05/14 07:31:01;;;;;;;15.30;5.65;;;;;;;;;;5050044;28;20099;-68
2022/05/14 07:33:27;;;;;;;15.57;4.85;;;;;;;;;;5050587;28;20100;-69
2022/05/14 07:35:54;;;;;;;13.73;4.93;;;;;;;;;;5050023;28;20029;-68
2022/05/14 07:38:20;;;;;;;17.27;5.05;;;;;;;;;;5050019;28;20032;-68
2022/05/14 07:40:46;;;;;;;16.58;6.18;;;;;;;;;;5049783;28;20497;-68
2022/05/14 07:43:16;;;;;;;13.60;4.97;;;;;;;;;;5076754;28;20363;-68
2022/05/14 07:45:43;;;;;;;14.50;4.35;;;;;;;;;;5066321;28;20020;-68
2022/05/14 07:48:13;;;;;;;9.00;3.75;;;;;;;;;;5049680;28;20033;-68
2022/05/14 07:50:39;;;;;;;17.13;4.43;;;;;;;;;;5057018;28;20419;-68
2022/05/14 07:53:06;;;;;;;7.90;3.72;;;;;;;;;;5055804;28;20044;-68
2022/05/14 07:55:33;;;;;;;15.35;3.83;;;;;;;;;;5048437;28;20047;-68
2022/05/14 07:57:59;;;;;;;10.13;4.05;;;;;;;;;;5046610;28;20032;-68
2022/05/14 08:00:26;;;;;;;14.40;3.05;;;;;;;;;;5046848;28;20068;-68
2022/05/14 08:02:52;;;;;;;11.38;2.97;;;;;;;;;;5047619;28;20078;-68
2022/05/14 08:05:20;;;;;;;13.88;3.15;;;;;;;;;;5041798;28;20429;-68
2022/05/14 08:07:46;;;;;;;8.77;2.92;;;;;;;;;;5055339;28;20063;-68
2022/05/14 08:10:13;;;;;;;9.40;3.15;;;;;;;;;;5054689;28;20076;-68
2022/05/14 08:12:55;;;;;;;8.05;2.17;;;;;;;;;;5055312;28;20021;-68
2022/05/14 08:15:22;;;;;;;8.63;1.92;;;;;;;;;;5055163;28;20029;-68
2022/05/14 08:17:48;;;;;;;13.55;2.88;;;;;;;;;;5055443;28;20393;-68
2022/05/14 08:20:15;;;;;;;8.80;2.70;;;;;;;;;;5054782;28;20036;-68
2022/05/14 08:25:26;;;;;;;6.30;2.67;;;;;;;;;;5055188;28;20066;-68
2022/05/14 08:27:53;;;;;;;9.00;3.03;;;;;;;;;;5055080;28;20021;-68
2022/05/14 08:30:24;;;;;;;8.70;2.90;;;;;;;;;;5054445;28;20617;-68
2022/05/14 08:32:50;;;;;;;11.68;3.17;;;;;;;;;;5054934;28;20028;-68
2022/05/14 08:35:17;;;;;;;13.07;3.08;;;;;;;;;;5062436;28;20111;-68
2022/05/14 08:37:44;;;;;;;12.82;3.00;;;;;;;;;;5054600;28;20037;-68
2022/05/14 08:40:21;;;;;;;10.57;3.47;;;;;;;;;;5054203;28;20028;-68
2022/05/14 08:42:51;;;;;;;8.52;3.05;;;;;;;;;;5054955;28;20025;-68
2022/05/14 08:45:19;;;;;;;12.60;3.33;;;;;;;;;;5054342;28;20306;-68
2022/05/14 08:47:54;;;;;;;12.38;3.55;;;;;;;;;;5054594;28;20031;-68
2022/05/14 08:50:23;;;;;;;11.27;2.88;;;;;;;;;;5054272;28;20075;-68
2022/05/14 08:52:49;;;;;;;10.05;3.30;;;;;;;;;;5054378;28;20029;-68
2022/05/14 08:55:17;;;;;;;6.80;2.50;;;;;;;;;;5054364;28;20496;-68
2022/05/14 08:57:50;;;;;;;6.97;2.83;;;;;;;;;;5054463;28;20539;-68
2022/05/14 09:00:17;;;;;;;16.55;2.47;;;;;;;;;;5053811;28;20040;-68
2022/05/14 09:02:48;;;;;;;13.02;2.47;;;;;;;;;;5054506;28;20071;-68
2022/05/14 09:05:17;;;;;;;8.98;2.20;;;;;;;;;;5054649;28;20021;-68
2022/05/14 09:07:44;;;;;;;11.07;2.53;;;;;;;;;;5054025;28;20078;-68
2022/05/14 09:10:20;;;;;;;6.65;2.50;;;;;;;;;;5053914;28;20029;-68
2022/05/14 09:13:09;;;;;;;11.23;2.47;;;;;;;;;;5053057;28;20554;-68
2022/05/14 09:15:42;;;;;;;5.43;2.15;;;;;;;;;;5049068;28;20072;-68
2022/05/14 09:18:10;;;;;;;12.90;2.40;;;;;;;;;;5053914;28;20037;-68
2022/05/14 09:20:42;;;;;;;6.45;2.08;;;;;;;;;;5053949;28;20025;-68
2022/05/14 09:23:08;;;;;;;10.50;2.33;;;;;;;;;;5053584;28;20031;-68
2022/05/14 09:25:40;;;;;;;10.45;2.97;;;;;;;;;;5054001;28;20404;-68
2022/05/14 09:28:22;;;;;;;11.90;2.10;;;;;;;;;;5053666;28;20119;-68
2022/05/14 09:30:56;;;;;;;9.52;2.75;;;;;;;;;;5053916;28;20270;-68
2022/05/14 09:33:27;;;;;;;5.75;2.13;;;;;;;;;;5053512;28;20115;-68
2022/05/14 09:36:00;;;;;;;7.35;2.35;;;;;;;;;;5062986;28;20575;-68
2022/05/14 09:38:26;;;;;;;8.27;2.10;;;;;;;;;;5053609;28;20685;-68
2022/05/14 09:40:55;;;;;;;7.28;1.92;;;;;;;;;;5053752;28;20041;-68
2022/05/14 09:43:21;;;;;;;5.72;1.80;;;;;;;;;;5053652;28;20488;-68
2022/05/14 09:45:56;;;;;;;8.77;2.15;;;;;;;;;;5053654;28;20024;-68
2022/05/14 09:48:23;;;;;;;5.22;1.80;;;;;;;;;;5053175;28;20040;-68
2022/05/14 09:50:56;;;;;;;7.72;1.88;;;;;;;;;;5053294;28;20033;-68
2022/05/14 09:53:31;;;;;;;5.97;2.03;;;;;;;;;;5053319;28;20112;-68
2022/05/14 09:56:09;;;;;;;14.20;2.00;;;;;;;;;;5053414;28;20037;-68
2022/05/14 09:58:42;;;;;;;7.47;1.73;;;;;;;;;;5040256;28;20036;-68
2022/05/14 10:01:10;;;;;;;8.10;1.80;;;;;;;;;;5052759;28;20025;-68
2022/05/14 10:03:36;;;;;;;7.38;1.75;;;;;;;;;;5037221;28;20103;-68
2022/05/14 10:06:05;;;;;;;10.15;1.70;;;;;;;;;;5052866;28;20029;-68
2022/05/14 10:08:34;;;;;;;7.35;1.73;;;;;;;;;;5052886;28;20025;-68
2022/05/14 10:11:12;;;;;;;7.10;1.88;;;;;;;;;;5037751;28;20393;-68
2022/05/14 10:13:47;;;;;;;7.10;1.85;;;;;;;;;;5037209;28;20485;-68
2022/05/14 10:16:25;;;;;;;10.82;1.70;;;;;;;;;;5052903;28;20443;-68
2022/05/14 10:19:11;;;;;;;8.38;1.77;;;;;;;;;;5053067;28;20040;-68
2022/05/14 10:21:40;;;;;;;8.15;1.90;;;;;;;;;;5037048;28;20071;-68
2022/05/14 10:27:04;;;;;;;7.03;1.70;;;;;;;;;;5052961;28;20041;-68
2022/05/14 10:29:37;;;;;;;5.25;1.60;;;;;;;;;;5052469;28;20025;-68
2022/05/14 10:32:04;;;;;;;5.60;1.73;;;;;;;;;;5052816;28;20021;-68
2022/05/14 10:34:50;;;;;;;6.05;1.50;;;;;;;;;;5052082;28;20066;-68
2022/05/14 10:37:22;;;;;;;7.70;2.40;;;;;;;;;;5010383;28;20034;-68
2022/05/14 10:39:54;;;;;;;4.78;1.38;;;;;;;;;;5010953;28;20552;-68
2022/05/14 10:42:37;;;;;;;4.68;2.03;;;;;;;;;;5010677;28;20486;-68
2022/05/14 10:45:06;;;;;;;6.93;1.73;;;;;;;;;;5010782;28;20026;-68
2022/05/14 10:47:32;;;;;;;6.95;1.63;;;;;;;;;;5010210;28;20065;-68
2022/05/14 10:50:02;;;;;;;8.38;1.63;;;;;;;;;;5010490;28;20022;-68
2022/05/14 10:52:28;;;;;;;8.48;2.30;;;;;;;;;;5010529;28;20108;-68
2022/05/14 10:54:57;;;;;;;4.88;1.63;;;;;;;;;;5010579;28;20038;-68
2022/05/14 10:57:26;;;;;;;5.10;1.80;;;;;;;;;;5009796;28;20058;-68
2022/05/14 11:00:18;;;;;;;12.55;1.80;;;;;;;;;;5010429;28;20068;-68
2022/05/14 11:03:12;;;;;;;8.07;1.40;;;;;;;;;;5009994;28;20108;-68
2022/05/14 11:05:50;;;;;;;7.53;1.77;;;;;;;;;;5008681;28;20034;-68
2022/05/14 11:08:28;;;;;;;6.88;2.42;;;;;;;;;;5010311;28;20406;-68
2022/05/14 11:11:04;;;;;;;8.98;1.80;;;;;;;;;;5010355;28;20533;-68
2022/05/14 11:13:30;;;;;;;9.07;1.70;;;;;;;;;;5015382;28;20042;-68
2022/05/14 11:16:00;;;;;;;9.65;1.50;;;;;;;;;;5052102;28;20028;-68
2022/05/14 11:18:27;;;;;;;11.02;1.83;;;;;;;;;;5051607;28;20032;-68
2022/05/14 11:20:58;;;;;;;7.55;1.75;;;;;;;;;;5051891;28;20108;-68
2022/05/14 11:23:24;;;;;;;6.35;1.80;;;;;;;;;;5051404;28;20028;-68
2022/05/14 11:26:11;;;;;;;5.68;2.47;;;;;;;;;;5051988;28;20017;-68
2022/05/14 11:28:37;;;;;;;7.07;1.90;;;;;;;;;;5051775;28;20036;-68
2022/05/14 11:31:22;;;;;;;7.32;2.13;;;;;;;;;;5051858;28;20028;-68
2022/05/14 11:33:48;;;;;;;6.18;2.03;;;;;;;;;;5035744;28;20112;-68
2022/05/14 11:36:14;;;;;;;3.60;1.90;;;;;;;;;;5055461;28;20485;-68
2022/05/14 11:38:42;;;;;;;8.15;1.90;;;;;;;;;;5051668;28;20024;-68
2022/05/14 11:41:27;;;;;;;8.05;1.88;;;;;;;;;;5051742;28;20033;-68
2022/05/14 11:43:53;;;;;;;7.05;1.55;;;;;;;;;;5037092;28;20017;-68
2022/05/14 11:46:31;;;;;;;9.13;1.90;;;;;;;;;;5051207;28;20370;-68
2022/05/14 11:49:16;;;;;;;7.28;1.60;;;;;;;;;;5051705;28;20021;-68
2022/05/14 11:52:01;;;;;;;5.30;1.70;;;;;;;;;;5051431;28;20029;-68
2022/05/14 11:54:29;;;;;;;6.28;1.65;;;;;;;;;;5051508;28;20029;-68
2022/05/14 11:57:15;;;;;;;8.10;1.80;;;;;;;;;;5051477;28;20072;-68
2022/05/14 11:59:42;;;;;;;5.85;1.58;;;;;;;;;;5061558;28;20065;-68
2022/05/14 12:02:16;;;;;;;5.68;1.30;;;;;;;;;;5051279;28;20496;-68
2022/05/14 12:04:45;;;;;;;5.35;2.05;;;;;;;;;;5051440;28;20079;-68
2022/05/14 12:07:31;;;;;;;13.68;1.83;;;;;;;;;;5051530;28;20022;-68
2022/05/14 12:10:12;;;;;;;8.43;1.50;;;;;;;;;;5036991;28;20043;-68
2022/05/14 12:12:51;;;;;;;12.68;2.35;;;;;;;;;;5051297;28;20547;-68
2022/05/14 12:15:21;;;;;;;8.40;1.75;;;;;;;;;;5051151;28;20127;-68
2022/05/14 12:17:53;;;;;;;8.80;2.30;;;;;;;;;;5051334;28;20032;-68
2022/05/14 12:20:25;;;;;;;10.48;1.70;;;;;;;;;;5051251;28;20036;-68
2022/05/14 12:22:51;;;;;;;;;;;;;;;;;;5051663;28;20048;-68
2022/05/14 12:25:17;;;;;;;10.55;2.63;;;;;;;;;;5051499;28;19905;-68
2022/05/14 12:27:48;;;;;;;7.13;1.90;;;;;;;;;;5050892;28;20146;-68
2022/05/14 12:33:11;;;;;;;6.85;2.00;;;;;;;;;;5050892;28;20032;-68
2022/05/14 12:33:12;;;;;;;7.15;2.25;;;;;;;;;;5051200;28;20087;-68
2022/05/14 12:35:41;;;;;;;5.65;1.80;;;;;;;;;;5055904;28;20455;-68
2022/05/14 12:38:09;;;;;;;7.70;1.80;;;;;;;;;;5051191;28;20075;-68
2022/05/14 12:40:37;;;;;;;7.95;2.30;;;;;;;;;;5051009;28;20028;-68
2022/05/14 12:43:05;;;;;;;8.20;2.42;;;;;;;;;;5051418;28;20028;-68
2022/05/14 12:45:36;;;;;;;8.13;1.90;;;;;;;;;;5049711;28;20451;-68
2022/05/14 12:48:03;;;;;;;8.75;1.52;;;;;;;;;;5054702;28;20052;-68
2022/05/14 12:50:33;;;;;;;9.05;1.95;;;;;;;;;;5054610;28;20029;-68
2022/05/14 12:53:05;;;;;;;8.68;2.00;;;;;;;;;;5054511;28;20041;-68
2022/05/14 12:55:33;;;;;;;5.13;1.80;;;;;;;;;;5054195;28;20032;-68
2022/05/14 12:58:04;;;;;;;8.63;2.40;;;;;;;;;;5054560;28;20040;-68
2022/05/14 13:00:33;;;;;;;6.00;2.00;;;;;;;;;;5054217;28;20090;-68
2022/05/14 13:03:03;;;;;;;9.52;2.00;;;;;;;;;;5054423;28;20024;-68
2022/05/14 13:05:35;;;;;;;13.75;2.00;;;;;;;;;;5054199;28;20029;-68
2022/05/14 13:08:09;;;;;;;6.38;1.42;;;;;;;;;;5039262;28;20025;-68
2022/05/14 13:10:36;;;;;;;7.05;1.58;;;;;;;;;;5054222;28;20029;-68
2022/05/14 13:13:03;;;;;;;9.18;1.80;;;;;;;;;;5053822;28;20036;-68
2022/05/14 13:15:34;;;;;;;5.78;1.55;;;;;;;;;;5054103;28;20087;-68
2022/05/14 13:18:10;;;;;;;8.45;2.03;;;;;;;;;;5038522;28;20028;-68
2022/05/14 13:20:36;;;;;;;8.95;2.00;;;;;;;;;;5054048;28;20021;-68
2022/05/14 13:23:04;;;;;;;5.20;2.15;;;;;;;;;;5053901;28;20456;-68
2022/05/14 13:25:35;;;;;;;8.75;1.77;;;;;;;;;;5053726;28;20481;-68
2022/05/14 13:28:13;;;;;;;7.50;2.00;;;;;;;;;;5054019;28;20473;-68
2022/05/14 13:30:39;;;;;;;7.15;1.80;;;;;;;;;;5053926;28;20047;-68
2022/05/14 13:33:10;;;;;;;8.75;1.88;;;;;;;;;;5054122;28;20103;-68
2022/05/14 13:38:30;;;;;;;15.20;2.55;;;;;;;;;;5053883;28;20504;-68
2022/05/14 13:40:58;;;;;;;7.70;2.00;;;;;;;;;;5053596;28;20908;-68
2022/05/14 13:43:27;;;;;;;10.52;1.95;;;;;;;;;;5053315;28;20063;-68
2022/05/14 13:45:55;;;;;;;11.90;2.00;;;;;;;;;;5053389;28;21176;-68
2022/05/14 13:48:26;;;;;;;9.50;1.75;;;;;;;;;;5053752;28;20021;-68
2022/05/14 13:50:57;;;;;;;7.80;1.60;;;;;;;;;;5053142;28;20555;-68
2022/05/14 13:53:35;;;;;;;7.25;1.52;;;;;;;;;;5053637;28;20029;-68
2022/05/14 13:56:02;;;;;;;8.85;1.85;;;;;;;;;;5053245;28;20076;-68
2022/05/14 13:58:29;;;;;;;7.40;1.83;;;;;;;;;;5051566;28;20025;-68
2022/05/14 14:00:59;;;;;;;8.15;1.90;;;;;;;;;;5052707;28;20120;-68
2022/05/14 14:03:29;;;;;;;6.47;2.28;;;;;;;;;;5053062;28;20017;-68
2022/05/14 14:05:55;;;;;;;13.40;2.13;;;;;;;;;;5049670;28;20038;-68
2022/05/14 14:08:27;;;;;;;16.35;2.72;;;;;;;;;;5039435;28;20019;-68
2022/05/14 14:10:55;;;;;;;11.65;2.83;;;;;;;;;;5042466;28;20068;-68
2022/05/14 14:13:22;;;;;;;9.82;2.30;;;;;;;;;;5047527;28;20476;-68
2022/05/14 14:15:48;;;;;;;8.88;1.90;;;;;;;;;;5036313;28;20083;-68
2022/05/14 14:18:15;;;;;;;15.98;2.55;;;;;;;;;;5052622;28;20025;-68
2022/05/14 14:20:44;;;;;;;7.15;2.00;;;;;;;;;;5052728;28;20063;-68
2022/05/14 14:23:11;;;;;;;7.38;2.00;;;;;;;;;;5052897;28;20079;-68
2022/05/14 14:25:40;;;;;;;10.88;2.38;;;;;;;;;;5052197;28;20052;-68
2022/05/14 14:28:08;;;;;;;11.50;2.17;;;;;;;;;;5036917;28;20170;-68
2022/05/14 14:30:34;;;;;;;6.47;1.92;;;;;;;;;;5052973;28;20397;-68
2022/05/14 14:33:00;;;;;;;12.38;2.20;;;;;;;;;;5052665;28;20032;-68
2022/05/14 14:35:26;;;;;;;9.20;1.98;;;;;;;;;;5058353;28;20514;-68
2022/05/14 14:37:53;;;;;;;7.25;1.77;;;;;;;;;;5053814;28;20485;-68
2022/05/14 14:40:19;;;;;;;9.65;1.90;;;;;;;;;;5052248;28;20040;-68
2022/05/14 14:42:45;;;;;;;8.65;1.88;;;;;;;;;;5052670;28;20439;-68
2022/05/14 14:45:13;;;;;;;11.60;2.50;;;;;;;;;;5052724;28;20029;-68
2022/05/14 14:47:40;;;;;;;8.98;2.67;;;;;;;;;;5052388;28;20025;-68
2022/05/14 14:50:07;;;;;;;15.30;2.88;;;;;;;;;;5052123;28;20032;-68
2022/05/14 14:52:33;;;;;;;6.45;2.15;;;;;;;;;;5052476;28;20028;-68
2022/05/14 14:54:59;;;;;;;8.88;2.25;;;;;;;;;;5051779;28;20124;-67
2022/05/14 14:57:25;;;;;;;8.38;2.15;;;;;;;;;;5052246;28;20045;-68
2022/05/14 14:59:52;;;;;;;10.88;2.17;;;;;;;;;;5051772;28;20037;-68
2022/05/14 15:02:21;;;;;;;9.73;1.65;;;;;;;;;;5052337;28;20032;-68
2022/05/14 15:05:00;;;;;;;11.40;2.13;;;;;;;;;;5052068;28;20025;-68
2022/05/14 15:07:27;;;;;;;8.50;2.17;;;;;;;;;;5052279;28;20029;-68
2022/05/14 15:09:53;;;;;;;16.10;2.22;;;;;;;;;;5051453;28;20058;-68
2022/05/14 15:12:20;;;;;;;10.75;2.22;;;;;;;;;;5052092;28;20496;-67
2022/05/14 15:14:46;;;;;;;12.63;2.13;;;;;;;;;;5052126;28;20021;-68